Time;durP1;ratioP1;P1;durP2;ratioP2;P2;SDS_P1;SDS_P2;PMS_P1;PMS_P2;Temp;Humidity;BMP_temperature;BMP_pressure;BME280_temperature;BME280_humidity;BME280_pressure;Samples;Min_cycle;Max_cycle;Signal;HPM_P1;HPM_P2
2022/08/05 00:02:18;;;;;;;2.88;0.43;;;;;;;24.65;50.19;101390.69;16143373;19;130209;-51
2022/08/05 00:07:40;;;;;;;0.80;0.60;;;;;;;24.64;50.04;101392.66;16145844;19;130100;-53
2022/08/05 00:13:21;;;;;;;1.70;0.70;;;;;;;24.64;49.94;101389.00;16142069;19;130720;-53
2022/08/05 00:19:00;;;;;;;1.55;0.57;;;;;;;24.63;50.16;101384.53;16141942;19;131616;-53
2022/08/05 00:24:22;;;;;;;1.38;0.52;;;;;;;24.62;50.08;101394.88;16143361;19;130271;-54
2022/08/05 00:29:51;;;;;;;3.50;0.50;;;;;;;24.60;50.14;101396.28;16138466;19;129820;-50
2022/08/05 00:35:16;;;;;;;0.70;0.43;;;;;;;24.58;50.64;101427.31;16134507;19;129608;-52
2022/08/05 00:40:52;;;;;;;6.30;0.57;;;;;;;24.63;50.87;101451.66;16143069;19;129687;-56
2022/08/05 00:46:14;;;;;;;3.17;0.60;;;;;;;24.63;50.29;101463.72;16143687;19;129595;-55
2022/08/05 00:51:36;;;;;;;4.47;1.00;;;;;;;24.63;50.54;101480.50;16139456;19;130661;-56
2022/08/05 00:57:12;;;;;;;2.88;0.80;;;;;;;24.64;49.98;101506.50;16140738;19;129695;-56
2022/08/05 01:02:34;;;;;;;5.03;0.85;;;;;;;24.64;49.80;101520.50;16142771;19;129682;-55
2022/08/05 01:07:56;;;;;;;4.25;1.00;;;;;;;24.64;50.14;101506.50;16141024;19;129672;-55
2022/08/05 01:13:57;;;;;;;3.35;0.75;;;;;;;24.65;50.40;101491.41;16140291;19;130080;-56
2022/08/05 01:19:33;;;;;;;4.57;0.80;;;;;;;24.64;50.68;101492.50;16139793;19;129523;-55
2022/08/05 01:25:42;;;;;;;2.15;0.70;;;;;;;24.62;50.41;101475.16;16139953;19;131420;-56
2022/08/05 01:31:13;;;;;;;4.40;0.85;;;;;;;24.60;50.43;101410.28;16140951;19;130689;-56
2022/08/05 01:36:43;;;;;;;1.20;0.70;;;;;;;24.60;50.44;101302.00;16133879;19;129539;-56
2022/08/05 01:42:12;;;;;;;1.88;0.90;;;;;;;24.60;50.78;101447.47;16138374;19;129430;-56
2022/08/05 01:47:37;;;;;;;1.05;0.60;;;;;;;24.56;50.17;101385.66;16138745;19;129400;-57
2022/08/05 01:53:07;;;;;;;2.00;0.88;;;;;;;24.57;50.33;101437.69;16135611;19;129693;-55
2022/08/05 01:58:32;;;;;;;2.65;0.80;;;;;;;24.55;50.37;101462.28;16138369;19;130076;-56
2022/08/05 02:04:08;;;;;;;2.05;0.50;;;;;;;24.56;50.47;101466.75;16138222;19;129477;-56
2022/08/05 02:09:31;;;;;;;2.08;0.50;;;;;;;24.54;50.45;101454.19;16134068;19;129535;-56
2022/08/05 02:15:20;;;;;;;2.55;0.88;;;;;;;24.54;50.39;101418.63;16131883;19;129357;-56
2022/08/05 02:20:56;;;;;;;2.45;0.80;;;;;;;24.52;50.43;101434.84;16140014;19;129545;-56
2022/08/05 02:26:27;;;;;;;1.48;0.70;;;;;;;24.52;50.50;101436.81;16135850;19;130186;-55
2022/08/05 02:31:52;;;;;;;2.33;0.57;;;;;;;24.51;50.38;101433.16;16135740;19;129125;-55
2022/08/05 02:37:18;;;;;;;1.63;0.50;;;;;;;24.50;50.07;101447.44;16135227;19;129106;-55
2022/08/05 02:42:44;;;;;;;4.57;0.60;;;;;;;24.50;50.26;101453.03;16135965;19;129444;-55
2022/08/05 02:48:14;;;;;;;2.63;0.60;;;;;;;24.51;50.42;101469.53;16134774;19;129395;-55
2022/08/05 02:53:38;;;;;;;1.00;0.57;;;;;;;24.50;50.50;101469.81;16130231;19;129313;-56
2022/08/05 02:59:02;;;;;;;3.15;0.82;;;;;;;24.49;50.17;101474.56;16135699;19;130565;-55
2022/08/05 03:04:26;;;;;;;1.73;0.70;;;;;;;24.48;50.33;101481.28;16137783;19;129609;-57
2022/08/05 03:09:48;;;;;;;3.20;0.88;;;;;;;24.46;50.20;101468.66;16136036;19;129071;-56
2022/08/05 03:15:13;;;;;;;2.92;0.70;;;;;;;24.45;50.22;101469.78;16132507;19;129530;-56
2022/08/05 03:20:37;;;;;;;1.40;0.70;;;;;;;24.43;50.27;101459.69;16135495;19;129373;-56
2022/08/05 03:26:05;;;;;;;3.03;0.60;;;;;;;24.44;50.39;101449.38;16132751;19;129727;-57
2022/08/05 03:31:47;;;;;;;1.92;0.75;;;;;;;24.42;50.60;101441.28;16132263;19;129572;-58
2022/08/05 03:37:19;;;;;;;4.75;0.98;;;;;;;24.42;50.33;101438.47;16135301;19;129093;-58
2022/08/05 03:42:43;;;;;;;2.60;1.10;;;;;;;24.41;50.32;101428.41;16128875;19;130473;-56
2022/08/05 03:48:13;;;;;;;2.95;1.13;;;;;;;24.39;50.42;101413.84;16136065;19;129317;-57
2022/08/05 03:54:00;;;;;;;4.88;1.10;;;;;;;24.39;50.28;101427.81;16124138;19;129449;-57
2022/08/05 03:59:48;;;;;;;2.33;0.93;;;;;;;24.38;49.92;101436.47;16131974;19;130147;-55
2022/08/05 04:05:17;;;;;;;2.95;0.90;;;;;;;24.37;50.10;101429.22;16131395;19;129086;-56
2022/08/05 04:10:40;;;;;;;3.28;1.08;;;;;;;24.37;49.86;101432.03;16136649;19;129646;-56
2022/08/05 04:16:02;;;;;;;2.63;1.20;;;;;;;24.36;49.76;101442.34;16142468;19;131318;-56
2022/08/05 04:21:25;;;;;;;2.97;0.95;;;;;;;24.35;49.86;101440.66;16145411;19;128951;-56
2022/08/05 04:27:07;;;;;;;4.45;1.10;;;;;;;24.35;49.98;101437.03;16147948;19;129557;-60
2022/08/05 04:32:28;;;;;;;2.28;1.10;;;;;;;24.36;49.86;101442.34;16144144;19;129138;-56
2022/08/05 04:37:53;;;;;;;2.47;1.15;;;;;;;24.34;49.78;101454.94;16145618;19;128926;-57
2022/08/05 04:43:23;;;;;;;3.38;0.80;;;;;;;24.34;49.73;101452.13;16143923;19;129626;-54
2022/08/05 04:48:46;;;;;;;1.77;0.95;;;;;;;24.33;49.83;101442.06;16144801;19;129318;-55
2022/08/05 04:54:13;;;;;;;3.80;0.98;;;;;;;24.33;49.79;101433.66;16141588;19;128979;-55
2022/08/05 04:59:35;;;;;;;2.53;0.88;;;;;;;24.32;50.01;101444.00;16146079;19;129355;-55
2022/08/05 05:05:01;;;;;;;2.53;0.93;;;;;;;24.32;49.94;101454.34;16146537;19;129338;-56
2022/08/05 05:10:23;;;;;;;4.13;0.90;;;;;;;24.30;49.86;101471.41;16145356;19;129353;-53
2022/08/05 05:15:49;;;;;;;2.00;1.08;;;;;;;24.29;49.74;101475.31;16139053;19;129760;-67
2022/08/05 05:21:20;;;;;;;5.35;1.50;;;;;;;24.29;49.74;101472.53;16144766;19;128997;-65
2022/08/05 05:26:47;;;;;;;4.55;1.23;;;;;;;24.27;49.87;101472.78;16146847;19;129745;-61
2022/08/05 05:32:13;;;;;;;2.95;1.08;;;;;;;24.25;49.64;101482.56;16141251;19;129378;-61
2022/08/05 05:37:47;;;;;;;2.35;1.00;;;;;;;24.27;49.61;101483.13;16143936;19;129822;-65
2022/08/05 05:43:22;;;;;;;6.88;2.25;;;;;;;24.22;49.46;101492.31;16140124;19;129282;-60
2022/08/05 05:49:03;;;;;;;8.85;3.55;;;;;;;24.04;46.68;101495.53;16144454;19;129450;-64
2022/08/05 05:54:34;;;;;;;12.70;4.18;;;;;;;23.81;46.03;101506.00;16138756;19;128913;-59
2022/08/05 06:00:16;;;;;;;7.55;3.97;;;;;;;23.65;46.01;101511.47;16144479;19;128908;-52
2022/08/05 06:05:38;;;;;;;10.77;3.42;;;;;;;23.58;46.45;101505.28;16142107;19;130295;-51
2022/08/05 06:11:02;;;;;;;7.30;2.97;;;;;;;23.61;46.16;101509.47;16137674;19;129335;-48
2022/08/05 06:16:24;;;;;;;12.52;2.60;;;;;;;23.62;46.27;101514.81;16137412;19;129350;-54
2022/08/05 06:21:52;;;;;;;9.50;2.80;;;;;;;23.66;46.56;101529.91;16140983;19;130713;-56
2022/08/05 06:27:14;;;;;;;9.10;2.33;;;;;;;23.76;45.71;101539.47;16142264;19;129195;-55
2022/08/05 06:32:56;;;;;;;8.02;2.22;;;;;;;23.82;45.87;101549.59;16137316;19;130365;-50
2022/08/05 06:38:18;;;;;;;9.25;2.08;;;;;;;23.80;45.90;101551.81;16139401;19;129019;-54
2022/08/05 06:43:57;;;;;;;7.90;2.00;;;;;;;23.83;45.81;101562.47;16134988;19;129746;-59
2022/08/05 06:49:21;;;;;;;6.60;2.20;;;;;;;23.84;45.53;101574.47;16133386;19;129813;-55
2022/08/05 06:55:03;;;;;;;8.40;1.98;;;;;;;23.85;45.73;101576.16;16133383;19;132985;-54
2022/08/05 07:00:25;;;;;;;6.40;2.00;;;;;;;23.82;45.70;101575.59;16138659;19;129035;-53
2022/08/05 07:05:50;;;;;;;8.03;2.07;;;;;;;23.83;46.02;101590.41;16138254;19;128886;-51
2022/08/05 07:11:11;;;;;;;6.63;1.92;;;;;;;23.86;45.99;101605.78;16137999;19;129435;-51
2022/08/05 07:16:51;;;;;;;7.32;2.05;;;;;;;23.89;45.53;101610.84;16131560;19;128968;-52
2022/08/05 07:22:32;;;;;;;5.10;1.98;;;;;;;23.90;45.52;101607.78;16136300;19;129328;-52
2022/08/05 07:27:55;;;;;;;7.07;1.90;;;;;;;23.93;45.04;101612.84;16131794;19;130955;-50
2022/08/05 07:33:25;;;;;;;5.88;1.60;;;;;;;24.01;45.40;101624.63;16134848;19;129369;-54
2022/08/05 07:39:05;;;;;;;4.35;1.63;;;;;;;24.06;45.43;101639.50;16135561;19;130269;-55
2022/08/05 07:44:44;;;;;;;5.03;1.58;;;;;;;24.11;45.05;101642.34;16134401;19;130259;-54
2022/08/05 07:50:07;;;;;;;5.72;1.70;;;;;;;24.18;45.10;101641.28;16149964;19;129438;-51
2022/08/05 07:55:30;;;;;;;3.33;1.40;;;;;;;24.26;44.89;101638.84;16143154;19;130900;-54
2022/08/05 08:01:12;;;;;;;6.13;1.20;;;;;;;24.32;44.66;101642.53;16149207;19;131471;-50
2022/08/05 08:06:35;;;;;;;3.78;1.10;;;;;;;24.32;44.18;101641.69;16143483;19;129497;-54
2022/08/05 08:11:57;;;;;;;5.80;1.30;;;;;;;24.28;43.88;101652.59;16148925;19;129530;-51
2022/08/05 08:17:32;;;;;;;3.80;1.20;;;;;;;24.22;43.71;101657.25;16143850;19;129350;-54
2022/08/05 08:23:01;;;;;;;5.70;1.40;;;;;;;24.24;43.70;101673.75;16147031;19;130294;-54
2022/08/05 08:28:23;;;;;;;5.10;1.38;;;;;;;24.18;43.51;101664.50;16147279;19;129620;-53
2022/08/05 08:33:57;;;;;;;3.22;1.10;;;;;;;24.20;43.81;101667.88;16142961;19;129296;-55
2022/08/05 08:39:20;;;;;;;5.30;1.42;;;;;;;24.26;43.90;101669.59;16147869;19;129456;-52
2022/08/05 08:44:43;;;;;;;6.55;0.85;;;;;;;24.29;44.00;101685.03;16143239;19;129713;-54
2022/08/05 08:50:25;;;;;;;9.43;1.40;;;;;;;24.29;43.88;101692.56;16145519;19;129814;-54
2022/08/05 08:56:07;;;;;;;6.50;1.42;;;;;;;24.24;43.69;101711.00;16137832;19;130942;-53
2022/08/05 09:01:30;;;;;;;5.32;1.05;;;;;;;24.22;43.85;101710.38;16144572;19;133243;-55
2022/08/05 09:06:52;;;;;;;8.13;1.20;;;;;;;24.17;43.80;101718.72;16145126;19;129713;-54
2022/08/05 09:12:14;;;;;;;5.47;1.33;;;;;;;24.17;43.79;101718.72;16144897;19;129367;-54
2022/08/05 09:17:49;;;;;;;8.07;1.38;;;;;;;24.19;43.57;101727.69;16140772;19;129211;-53
2022/08/05 09:23:16;;;;;;;6.35;1.13;;;;;;;24.23;43.57;101730.78;16141011;19;130166;-54
2022/08/05 09:28:40;;;;;;;2.90;0.77;;;;;;;24.26;43.78;101733.09;16142105;19;129251;-53
2022/08/05 09:34:06;;;;;;;3.15;0.80;;;;;;;24.30;43.85;101744.59;16140405;19;129284;-57
2022/08/05 09:39:37;;;;;;;3.60;0.90;;;;;;;24.33;43.32;101750.47;16141417;19;129352;-55
2022/08/05 09:45:07;;;;;;;4.22;0.80;;;;;;;24.34;43.26;101751.34;16137041;19;129250;-54
2022/08/05 09:50:50;;;;;;;5.03;0.77;;;;;;;24.36;43.01;101755.53;16144397;19;129381;-55
2022/08/05 09:56:12;;;;;;;5.93;0.93;;;;;;;24.36;42.70;101758.34;16141666;19;129386;-53
2022/08/05 10:01:38;;;;;;;2.92;0.70;;;;;;;24.37;42.76;101750.81;16139899;19;129288;-54
2022/08/05 10:07:07;;;;;;;2.13;0.80;;;;;;;24.39;42.62;101759.75;16140179;19;128825;-54
2022/08/05 10:12:54;;;;;;;3.08;0.80;;;;;;;24.38;42.57;101761.72;16140765;19;129025;-54
2022/08/05 10:18:26;;;;;;;1.73;0.63;;;;;;;24.39;42.28;101760.63;16133997;19;129660;-52
2022/08/05 10:23:49;;;;;;;1.92;0.75;;;;;;;24.39;42.34;101754.16;16140100;19;129354;-55
2022/08/05 10:29:21;;;;;;;2.15;0.60;;;;;;;24.38;41.86;101758.06;16141920;19;130259;-55
2022/08/05 10:35:03;;;;;;;1.65;0.73;;;;;;;24.38;41.87;101744.94;16135860;19;129543;-54
2022/08/05 10:40:42;;;;;;;3.47;0.68;;;;;;;24.40;41.47;101759.50;16137408;19;129914;-54
2022/08/05 10:46:11;;;;;;;62.58;20.23;;;;;;;24.40;41.39;101767.03;16132089;19;130757;-55
2022/08/05 10:51:47;;;;;;;43.70;14.35;;;;;;;24.42;41.43;101776.88;16137709;19;129238;-54
2022/08/05 10:57:30;;;;;;;32.95;11.40;;;;;;;24.43;41.43;101778.53;16132252;19;129018;-54
2022/08/05 11:03:06;;;;;;;30.45;10.82;;;;;;;24.44;41.40;101785.00;16135518;19;129983;-49
2022/08/05 11:09:12;;;;;;;21.27;8.00;;;;;;;24.43;40.93;101780.50;16128832;19;130193;-58
2022/08/05 11:14:37;;;;;;;19.65;6.40;;;;;;;24.41;41.39;101791.09;16135195;19;129911;-56
2022/08/05 11:20:41;;;;;;;12.68;4.70;;;;;;;24.43;40.88;101800.91;16137374;19;129978;-54
2022/08/05 11:26:21;;;;;;;12.10;3.85;;;;;;;24.44;40.72;101807.38;16146529;19;129136;-56
2022/08/05 11:32:23;;;;;;;12.77;3.50;;;;;;;24.41;40.63;101816.28;16150387;19;128916;-56
2022/08/05 11:37:59;;;;;;;11.35;3.38;;;;;;;24.42;40.31;101817.97;16143061;19;129240;-55
2022/08/05 11:44:05;;;;;;;9.15;2.45;;;;;;;24.41;40.61;101842.31;16145484;19;129078;-56
2022/08/05 11:49:29;;;;;;;8.25;2.42;;;;;;;24.39;40.29;101836.13;16150007;19;129530;-56
2022/08/05 11:54:56;;;;;;;4.40;1.60;;;;;;;24.40;40.51;101853.75;16144838;19;128900;-56
2022/08/05 12:00:30;;;;;;;7.32;1.92;;;;;;;24.40;39.89;101864.94;16145470;19;129499;-56
2022/08/05 12:05:53;;;;;;;6.25;1.73;;;;;;;24.37;39.61;101873.88;16149285;19;129173;-57
2022/08/05 12:11:22;;;;;;;5.32;1.20;;;;;;;24.37;39.95;101869.09;16148365;19;129043;-56
2022/08/05 12:16:48;;;;;;;3.72;1.10;;;;;;;24.36;40.11;101883.38;16145060;19;129268;-55
2022/08/05 12:22:11;;;;;;;5.18;1.20;;;;;;;24.35;39.81;101887.25;16148834;19;129201;-56
2022/08/05 12:27:41;;;;;;;3.08;0.98;;;;;;;24.35;39.77;101888.09;16148674;19;130281;-56
2022/08/05 12:33:14;;;;;;;3.63;1.20;;;;;;;24.35;39.82;101892.84;16146538;19;130163;-60
2022/08/05 12:38:57;;;;;;;1.85;0.90;;;;;;;24.36;39.73;101897.34;16141153;19;128936;-55
2022/08/05 12:44:19;;;;;;;3.28;1.20;;;;;;;24.36;39.59;101900.97;16143936;19;129518;-54
2022/08/05 12:49:53;;;;;;;3.28;0.80;;;;;;;24.36;39.75;101914.13;16145597;19;129222;-54
2022/08/05 12:55:29;;;;;;;2.05;0.73;;;;;;;24.36;39.40;101919.72;16139060;19;129271;-56
2022/08/05 13:00:53;;;;;;;3.22;0.80;;;;;;;24.35;39.07;101918.84;16145098;19;129849;-55
2022/08/05 13:06:42;;;;;;;1.52;0.47;;;;;;;24.36;39.33;101928.94;16147555;19;129397;-56
2022/08/05 13:12:15;;;;;;;3.38;0.68;;;;;;;24.35;39.31;101934.81;16145387;19;132247;-56
2022/08/05 13:17:37;;;;;;;1.45;0.60;;;;;;;24.34;39.28;101924.72;16142345;19;129876;-57
2022/08/05 13:23:03;;;;;;;1.25;0.57;;;;;;;24.34;39.00;101925.56;16143548;19;129501;-55
2022/08/05 13:28:28;;;;;;;1.52;0.50;;;;;;;24.34;38.60;101933.09;16145185;19;129867;-58
2022/08/05 13:33:53;;;;;;;1.42;0.50;;;;;;;24.34;38.68;101936.75;16144128;19;129130;-56
2022/08/05 13:39:35;;;;;;;1.00;0.50;;;;;;;24.34;38.72;101935.91;16143253;19;129252;-57
2022/08/05 13:45:18;;;;;;;0.55;0.30;;;;;;;24.33;38.07;101951.81;16138776;19;129679;-58
2022/08/05 13:50:41;;;;;;;0.55;0.20;;;;;;;24.34;38.78;101961.91;16142598;19;129651;-56
2022/08/05 13:56:05;;;;;;;1.45;0.40;;;;;;;24.35;38.87;101965.56;16138257;19;129051;-56
2022/08/05 14:01:39;;;;;;;1.65;0.68;;;;;;;24.34;38.50;101975.06;16142850;19;130889;-57
2022/08/05 14:07:31;;;;;;;1.25;0.35;;;;;;;24.34;38.17;101970.28;16144761;19;129963;-57
2022/08/05 14:13:13;;;;;;;1.40;0.63;;;;;;;24.34;38.60;101980.66;16141595;19;129583;-56
2022/08/05 14:18:36;;;;;;;0.95;0.30;;;;;;;24.33;38.30;101990.16;16136964;19;128854;-57
2022/08/05 14:23:58;;;;;;;1.15;0.30;;;;;;;24.33;38.18;101985.38;16140243;19;129628;-56
2022/08/05 14:29:21;;;;;;;0.60;0.28;;;;;;;24.32;37.95;101983.69;16141590;19;131424;-56
2022/08/05 14:34:43;;;;;;;1.27;0.40;;;;;;;24.32;37.65;101994.88;16140929;19;129249;-56
2022/08/05 14:40:07;;;;;;;0.68;0.20;;;;;;;24.33;37.79;101990.97;16143425;19;129349;-58
2022/08/05 14:45:29;;;;;;;0.30;0.30;;;;;;;24.34;37.71;101997.44;16137110;19;128955;-57
2022/08/05 14:50:51;;;;;;;2.83;0.30;;;;;;;24.32;37.43;101989.28;16142756;19;129700;-56
2022/08/05 14:56:13;;;;;;;0.63;0.30;;;;;;;24.34;36.89;101991.84;16136284;19;129167;-55
2022/08/05 15:01:43;;;;;;;0.98;0.20;;;;;;;24.33;37.05;101999.38;16142266;19;129562;-57
2022/08/05 15:07:10;;;;;;;0.75;0.20;;;;;;;24.32;36.71;102005.22;16132621;19;130350;-57
2022/08/05 15:12:51;;;;;;;2.35;0.47;;;;;;;24.31;36.60;102003.53;16135617;19;129544;-56
2022/08/05 15:18:24;;;;;;;2.00;0.28;;;;;;;24.29;36.57;101997.34;16132944;19;129435;-56
2022/08/05 15:23:46;;;;;;;1.50;0.35;;;;;;;24.29;36.35;101994.56;16137348;19;129513;-55
2022/08/05 15:29:08;;;;;;;1.42;0.20;;;;;;;24.23;35.84;102014.03;16134299;19;129534;-55
2022/08/05 15:34:30;;;;;;;1.77;0.30;;;;;;;24.24;35.93;102012.97;16133291;19;129892;-57
2022/08/05 15:39:55;;;;;;;1.20;0.40;;;;;;;24.24;36.21;102015.78;16134996;19;130420;-56
2022/08/05 15:45:43;;;;;;;4.03;0.30;;;;;;;24.28;36.35;102021.69;16128761;19;129999;-63
2022/08/05 15:51:06;;;;;;;4.78;0.50;;;;;;;24.28;36.11;102032.88;16129654;19;130295;-58
2022/08/05 15:56:28;;;;;;;10.10;1.20;;;;;;;24.30;35.91;102035.41;16130162;19;129241;-58
2022/08/05 16:01:51;;;;;;;5.78;1.60;;;;;;;24.33;35.77;102037.69;16132801;19;129774;-58
2022/08/05 16:07:14;;;;;;;4.90;1.00;;;;;;;24.37;36.43;102055.66;16139725;19;130041;-58
2022/08/05 16:12:36;;;;;;;6.95;1.65;;;;;;;24.27;34.92;102051.59;16148423;19;129848;-57
2022/08/05 16:17:57;;;;;;;7.88;1.02;;;;;;;24.23;35.15;102064.38;16147101;19;129020;-58
2022/08/05 16:23:19;;;;;;;6.03;1.08;;;;;;;24.27;35.28;102068.38;16151610;19;130233;-58
2022/08/05 16:28:43;;;;;;;6.40;1.30;;;;;;;24.27;35.14;102076.75;16150702;19;128965;-58
2022/08/05 16:34:04;;;;;;;6.18;0.70;;;;;;;24.28;35.24;102083.22;16149169;19;129010;-58
2022/08/05 16:39:29;;;;;;;;;;;;;;;24.22;35.21;102086.97;16146034;19;128987;-58
2022/08/05 16:45:11;;;;;;;3.40;0.60;;;;;;;24.24;35.73;102091.28;16143873;19;129335;-58
2022/08/05 16:50:53;;;;;;;7.32;0.73;;;;;;;24.24;35.29;102107.16;16146927;19;129440;-58
2022/08/05 16:56:16;;;;;;;5.25;0.75;;;;;;;24.22;35.69;102115.81;16147113;19;128875;-57
2022/08/05 17:01:38;;;;;;;3.28;0.60;;;;;;;24.21;35.69;102142.06;16147048;19;129666;-58
2022/08/05 17:07:16;;;;;;;2.90;0.50;;;;;;;24.19;35.88;102135.88;16143673;19;129497;-57
2022/08/05 17:12:58;;;;;;;9.65;0.95;;;;;;;24.14;35.63;102138.59;16140758;19;128968;-58
2022/08/05 17:18:21;;;;;;;1.63;0.50;;;;;;;24.10;35.66;102146.63;16138898;19;129152;-57
2022/08/05 17:23:43;;;;;;;4.82;1.10;;;;;;;24.04;35.13;102156.06;16145304;19;130272;-58
2022/08/05 17:29:27;;;;;;;4.35;0.63;;;;;;;24.01;35.16;102161.28;16145115;19;129917;-57
2022/08/05 17:34:54;;;;;;;3.97;0.60;;;;;;;23.99;34.87;102169.09;16144951;19;129431;-57
2022/08/05 17:40:18;;;;;;;9.80;0.70;;;;;;;23.96;34.59;102181.63;16135728;19;128966;-56
2022/08/05 17:45:43;;;;;;;5.17;0.60;;;;;;;23.92;34.40;102178.47;16135243;19;129119;-60
2022/08/05 17:51:05;;;;;;;17.08;1.35;;;;;;;23.92;35.04;102189.66;16133033;19;129674;-58
2022/08/05 17:56:30;;;;;;;27.65;1.77;;;;;;;23.92;34.64;102200.84;16140193;19;131653;-59
2022/08/05 18:01:52;;;;;;;12.80;1.00;;;;;;;23.94;34.01;102207.03;16142328;19;129510;-60
2022/08/05 18:07:15;;;;;;;11.50;1.10;;;;;;;23.94;33.79;102217.34;16140930;19;128816;-59
2022/08/05 18:12:37;;;;;;;8.43;0.90;;;;;;;23.94;33.55;102223.81;16142738;19;129122;-59
2022/08/05 18:17:59;;;;;;;8.18;0.70;;;;;;;23.91;32.96;102231.84;16138903;19;129572;-59
2022/08/05 18:23:31;;;;;;;16.17;0.88;;;;;;;23.90;32.63;102246.91;16139738;19;129003;-59
2022/08/05 18:29:07;;;;;;;7.68;1.00;;;;;;;23.89;32.17;102246.06;16137093;19;130210;-59
2022/08/05 18:34:30;;;;;;;7.03;0.95;;;;;;;23.87;31.88;102251.06;16140988;19;128918;-60
2022/08/05 18:40:02;;;;;;;7.88;0.82;;;;;;;23.89;32.32;102260.03;16134943;19;131541;-59
2022/08/05 18:45:44;;;;;;;4.45;0.88;;;;;;;23.90;31.93;102267.31;16134345;19;130703;-59
2022/08/05 18:57:08;;;;;;;9.52;1.08;;;;;;;23.77;29.82;102268.47;16135227;19;130381;-57
2022/08/05 19:02:36;;;;;;;8.68;0.88;;;;;;;23.66;29.76;102283.34;16139194;19;130656;-59
2022/08/05 19:08:01;;;;;;;3.83;0.85;;;;;;;23.56;29.38;102280.31;16135017;19;129215;-59
2022/08/05 19:13:23;;;;;;;4.95;1.10;;;;;;;23.46;29.90;102298.53;16138606;19;129641;-58
2022/08/05 19:18:49;;;;;;;5.13;0.63;;;;;;;23.46;29.87;102295.75;16136685;19;129567;-58
2022/08/05 19:24:11;;;;;;;10.70;1.20;;;;;;;23.47;30.33;102299.41;16137172;19;129536;-58
2022/08/05 19:29:34;;;;;;;9.88;1.00;;;;;;;23.45;30.28;102313.59;16136346;19;129017;-59
2022/08/05 19:34:56;;;;;;;8.05;1.52;;;;;;;23.48;30.43;102320.66;16137094;19;129046;-59
2022/08/05 19:40:18;;;;;;;6.75;1.02;;;;;;;23.51;31.04;102314.53;16133868;19;129540;-58
2022/08/05 19:45:44;;;;;;;6.25;0.73;;;;;;;23.54;30.72;102322.44;16146020;19;129862;-58
2022/08/05 19:51:15;;;;;;;4.75;1.00;;;;;;;23.55;30.80;102332.53;16148880;19;129424;-57
2022/08/05 19:57:03;;;;;;;10.27;1.05;;;;;;;23.55;30.81;102343.69;16149486;19;129534;-58
2022/08/05 20:02:32;;;;;;;12.68;1.00;;;;;;;23.53;31.00;102340.28;16145348;19;129598;-59
2022/08/05 20:07:56;;;;;;;10.75;1.10;;;;;;;23.51;31.29;102348.06;16148692;19;129161;-59
2022/08/05 20:13:19;;;;;;;6.63;0.80;;;;;;;23.51;31.09;102359.25;16148042;19;129255;-59
2022/08/05 20:19:02;;;;;;;15.52;1.48;;;;;;;23.50;30.91;102369.56;16138864;19;129428;-59
2022/08/05 20:24:23;;;;;;;11.77;1.83;;;;;;;23.51;30.89;102376.00;16136075;19;130516;-59
2022/08/05 20:29:46;;;;;;;12.15;1.20;;;;;;;23.47;31.17;102380.41;16144786;19;129986;-60
2022/08/05 20:35:19;;;;;;;2.42;0.70;;;;;;;23.44;31.36;102375.28;16143724;19;129353;-60
2022/08/05 20:40:41;;;;;;;8.77;1.55;;;;;;;23.45;31.47;102382.56;16139068;19;129013;-60
2022/08/05 20:46:05;;;;;;;9.52;1.23;;;;;;;23.40;31.58;102388.91;16139140;19;129445;-58
2022/08/05 20:51:27;;;;;;;7.70;0.90;;;;;;;23.35;31.71;102395.22;16144280;19;129893;-58
2022/08/05 20:56:49;;;;;;;6.18;1.25;;;;;;;23.39;31.91;102390.00;16144578;19;131036;-58
2022/08/05 21:02:11;;;;;;;5.22;0.85;;;;;;;23.45;32.11;102390.97;16147573;19;128930;-58
2022/08/05 21:07:38;;;;;;;6.28;1.13;;;;;;;23.47;32.48;102386.81;16147499;19;129669;-58
2022/08/05 21:13:12;;;;;;;5.15;0.80;;;;;;;23.51;32.18;102399.22;16145741;19;129625;-58
2022/08/05 21:18:46;;;;;;;2.47;0.65;;;;;;;23.53;32.58;102395.31;16142440;19;128843;-58
2022/08/05 21:24:09;;;;;;;3.55;0.90;;;;;;;23.53;32.46;102398.13;16145384;19;130309;-58
2022/08/05 21:29:33;;;;;;;3.57;0.60;;;;;;;23.54;32.83;102403.44;16143855;19;129028;-58
2022/08/05 21:35:01;;;;;;;1.67;0.60;;;;;;;23.54;33.08;102414.63;16144541;19;128961;-58
2022/08/05 21:40:43;;;;;;;2.97;0.60;;;;;;;23.55;33.08;102421.06;16140249;19;129964;-58
2022/08/05 21:46:05;;;;;;;4.32;0.70;;;;;;;23.54;32.99;102423.00;16135685;19;129493;-57
2022/08/05 21:51:27;;;;;;;3.08;0.60;;;;;;;23.53;33.11;102432.47;16140079;19;129385;-58
2022/08/05 21:57:09;;;;;;;2.05;0.70;;;;;;;23.51;33.29;102434.66;16140740;19;132267;-58
2022/08/05 22:02:51;;;;;;;2.25;0.47;;;;;;;23.51;33.68;102438.31;16142003;19;129543;-58
2022/08/05 22:08:13;;;;;;;4.53;0.45;;;;;;;23.51;33.59;102445.81;16141762;19;130332;-58
2022/08/05 22:13:43;;;;;;;2.47;0.50;;;;;;;23.50;33.58;102453.38;16141057;19;130539;-57
2022/08/05 22:19:25;;;;;;;1.42;0.45;;;;;;;23.51;33.71;102448.63;16135339;19;130748;-57
2022/08/05 22:31:07;;;;;;;1.48;0.30;;;;;;;23.49;33.88;102462.00;16139926;19;129708;-58
2022/08/05 22:36:31;;;;;;;1.98;0.40;;;;;;;23.49;33.82;102462.00;16140312;19;128904;-58
2022/08/05 22:41:53;;;;;;;2.45;0.30;;;;;;;23.48;33.75;102471.47;16140075;19;129348;-58
2022/08/05 22:47:33;;;;;;;2.08;0.45;;;;;;;23.48;34.15;102474.28;16140283;19;130318;-57
2022/08/05 22:52:55;;;;;;;1.38;0.32;;;;;;;23.47;34.22;102481.78;16135950;19;129962;-58
2022/08/05 22:58:17;;;;;;;1.10;0.35;;;;;;;23.48;34.47;102477.06;16138531;19;129911;-56
2022/08/05 23:03:49;;;;;;;1.02;0.20;;;;;;;23.48;34.33;102485.44;16132351;19;129898;-57
2022/08/05 23:09:19;;;;;;;1.08;0.20;;;;;;;23.47;34.69;102492.13;16138453;19;128898;-59
2022/08/05 23:15:02;;;;;;;1.20;0.17;;;;;;;23.45;34.62;102489.53;16134460;19;131246;-57
2022/08/05 23:20:31;;;;;;;0.68;0.20;;;;;;;23.45;34.84;102497.94;16131935;19;129155;-58
2022/08/05 23:25:53;;;;;;;1.08;0.20;;;;;;;23.45;35.00;102495.13;16138287;19;131414;-59
2022/08/05 23:31:15;;;;;;;0.38;0.17;;;;;;;23.44;35.29;102506.56;16137502;19;129086;-58
2022/08/05 23:36:38;;;;;;;1.48;0.30;;;;;;;23.44;35.39;102503.75;16136149;19;129822;-58
2022/08/05 23:42:05;;;;;;;0.32;0.20;;;;;;;23.43;35.24;102508.50;16132677;19;129163;-56
2022/08/05 23:47:35;;;;;;;0.60;0.15;;;;;;;23.41;35.16;102504.25;16133685;19;129434;-53
2022/08/05 23:53:08;;;;;;;2.28;0.30;;;;;;;23.44;35.31;102520.53;16131944;19;130137;-55
2022/08/05 23:58:43;;;;;;;0.40;0.37;;;;;;;23.46;35.44;102519.19;16131820;19;129702;-56
